Campanya meteocatpedra

Dades EMA Port de Barcelona - Bocana Sud

?
?
Resum diari 16:00 TU
Dades diàries de l'estació meteorològica
Ratxa màxima del vent (10 m) 27.7 km/h - 107º 12:10 TU

El tram horari està expressat en Temps Universal (TU). Cal sumar una hora en horari d'hivern i dues en horari d'estiu per passar a l'hora oficial.

Port de Barcelona - Bocana Sud

Metadades estació meteorol´gica
Municipi El Prat de Llobregat
Comarca Baix Llobregat
Altitud 3 m
Data alta 08.04.2015
Estat actual Operativa
Dades de període
Període
TU
VVM (10 m)
km/h
DVM (10 m)
graus
VVX (10 m)
km/h
00:00 - 00:30 5.8 161 7.6
00:30 - 01:00 5.0 162 7.9
01:00 - 01:30 4.7 167 6.8
01:30 - 02:00 2.9 155 7.2
02:00 - 02:30 2.9 229 6.1
02:30 - 03:00 3.2 275 6.1
03:00 - 03:30 2.9 285 4.3
03:30 - 04:00 1.8 316 3.6
04:00 - 04:30 4.3 53 10.1
04:30 - 05:00 5.8 55 9.7
05:00 - 05:30 7.9 67 12.2
05:30 - 06:00 7.6 112 11.2
06:00 - 06:30 5.4 113 9.0
06:30 - 07:00 5.8 120 11.9
07:00 - 07:30 3.6 137 5.8
07:30 - 08:00 5.8 95 7.9
08:00 - 08:30 7.2 60 12.2
08:30 - 09:00 10.8 56 16.9
09:00 - 09:30 14.0 83 16.6
09:30 - 10:00 13.3 78 16.2
10:00 - 10:30 15.1 90 18.4
10:30 - 11:00 11.9 108 18.7
11:00 - 11:30 12.6 123 22.0
11:30 - 12:00 16.6 117 27.0
12:00 - 12:30 20.5 111 27.7
12:30 - 13:00 19.4 112 25.9
13:00 - 13:30 20.9 103 26.3
13:30 - 14:00 19.8 103 25.6
14:00 - 14:30 19.4 101 24.1
14:30 - 15:00 18.7 94 23.4
15:00 - 15:30 17.3 92 21.6
15:30 - 16:00 16.9 91 21.2
16:00 - 16:30 (s/d) (s/d) (s/d)

Les dades en taronja només han passat un control de qualitat automàtic. Resta pendent la seva validació definitiva.